Jackson, MS (39210)

5:15 AM CDT on July 26, 2014 (GMT -0500)
Brinkly (KMSJACKS3) Elev 344 ft | 32.35 °N, 90.20 °W | Change Station

Current weather conditions updated 5 minutes ago

Scattered Clouds
Scattered Clouds
73.6 °F
Feels Like 73.6 °F
N
0.0
Wind Variable Wind from East

Today is forecast to be Warmer than yesterday.

Today
High -- | Low -- °F
--% Chance of Precip.
Yesterday
High -- | Low -- °F
Precip. -- in
6:11 AM 8:02 PM
Waning Crescent, 0% visible
Pressure 29.99 in
Visibility 10.0 miles
Clouds Scattered Clouds 3900 ft
Dew Point 73 °F
Humidity 98%
Rainfall 0.00 in
Snow Depth Not available.
UV 0 out of 12
Pollen 3.50 out of 12
Air Quality Not available.
Flu Activity Not available.
METAR KHKS 260953Z AUTO 00000KT 10SM SCT039 24/21 A3001 RMK AO2 SLP155 T02440211

More Conditions Fewer Conditions

Pressure 29.99 in
Visibility 10.0 miles
Clouds Scattered Clouds 3900 ft
Dew Point 73 °F
Humidity 98%
Rainfall 0.00 in
Snow Depth Not available.
UV 0 out of 12
Pollen 3.50 out of 12
Air Quality Not available.
Flu Activity Not available.
METAR KHKS 260953Z AUTO 00000KT 10SM SCT039 24/21 A3001 RMK AO2 SLP155 T02440211

More Conditions Fewer Conditions

10-Day Weather Forecast

Almanac

Astronomy

Jul. 26, 2014 Rise Set
Actual Time 6:11 AM CDT 8:02 PM CDT
Civil Twilight 5:44 AM CDT 8:29 PM CDT
Nautical Twilight 5:11 AM CDT 9:02 PM CDT
Astronomical Twilight 4:37 AM CDT 9:37 PM CDT
Moon 6:00 AM CDT 7:42 PM CDT
Length of Visible Light 14h 45m
Length of Day
13h 50m
Tomorrow will be 1m 20s shorter.
Waning Crescent, 0% of the Moon is Illuminated
Today
Waning Crescent
Jul 26
New
Aug 3
First Quarter
Aug 10
Full
Aug 17
Last Quarter

Today's Extremes

State Highs State Lows

Community

WunderPhotos

Upload Photos

1,737,529 photos uploaded!

Nearby

Snow Depth

Station Depth Elevation
No new snow has been reported.

Earthquake Activity

City Distance Mag. Time & Date
No recent earthquake activity has been reported nearby.
Minimum magnitude displayed is 2.5.

Coastal Water Temperatures

Place Temperature
No Stations Reporting

Nearby Weather Stations

Station Location Temp. Dew Point Humidity Wind Precip. Elev Updated Type
Brinkly, Jackson, MS 73.6 °F 73 °F 98% East  at  0.0 mph - / hr 344 ft 5:10 AM CDT Normal
Florence, FLORENCE, MS 71.8 °F 71 °F 98% NW  at  0.0 mph - / hr 367 ft 5:10 AM CDT Normal
Country Meadows, Brandon, MS 69.8 °F 68 °F 95% SSE  at  0.0 mph - / hr 367 ft 5:11 AM CDT Normal
Raintree Place, Brandon, MS 71.6 °F 71 °F 98% West  at  0.0 mph - / hr 410 ft 5:02 AM CDT Normal
APRSWXNET Brandon MS , Brandon, MS 72 °F 70 °F 95% NNW  at  0 mph 0.00 in / hr 316 ft 4:35 AM CDT MADIS
Red Oak, Gluckstadt, MS 72.2 °F 71 °F 96% NNW  at  0.0 mph 0.00 in / hr 289 ft 5:15 AM CDT Rapid Fire
Tank, Crystal Springs, MS 71.4 °F 71 °F 98% SE  at  0.0 mph - / hr 338 ft 5:03 AM CDT Normal
May Estates, Brandon, MS 70.6 °F 68 °F 91% SSW  at  0.0 mph 0.00 in / hr 380 ft 5:15 AM CDT Rapid Fire

Show More Stations Show Fewer Stations